sensor_id;sensor_type;location;lat;lon;timestamp;temperature;humidity
26721;HTU21D;15950;51.112;6.966;2024-02-28T00:00:52;3.63;84.64
26721;HTU21D;15950;51.112;6.966;2024-02-28T00:03:52;3.76;84.28
26721;HTU21D;15950;51.112;6.966;2024-02-28T00:06:52;3.86;85.19
26721;HTU21D;15950;51.112;6.966;2024-02-28T00:09:52;3.74;85.04
26721;HTU21D;15950;51.112;6.966;2024-02-28T00:12:52;3.96;85.85
26721;HTU21D;15950;51.112;6.966;2024-02-28T00:15:52;4.05;86.78
26721;HTU21D;15950;51.112;6.966;2024-02-28T00:18:52;4.12;86.13
26721;HTU21D;15950;51.112;6.966;2024-02-28T00:21:52;4.16;87.70
26721;HTU21D;15950;51.112;6.966;2024-02-28T00:24:52;4.27;86.25
26721;HTU21D;15950;51.112;6.966;2024-02-28T00:27:52;4.27;84.72
26721;HTU21D;15950;51.112;6.966;2024-02-28T00:30:52;4.43;83.64
26721;HTU21D;15950;51.112;6.966;2024-02-28T00:33:52;4.09;83.77
26721;HTU21D;15950;51.112;6.966;2024-02-28T00:36:52;4.09;83.50
26721;HTU21D;15950;51.112;6.966;2024-02-28T00:39:52;3.89;83.68
26721;HTU21D;15950;51.112;6.966;2024-02-28T00:42:52;4.04;83.36
26721;HTU21D;15950;51.112;6.966;2024-02-28T00:45:52;3.82;83.34
26721;HTU21D;15950;51.112;6.966;2024-02-28T00:48:52;3.58;83.99
26721;HTU21D;15950;51.112;6.966;2024-02-28T00:51:52;3.31;86.06
26721;HTU21D;15950;51.112;6.966;2024-02-28T00:54:52;3.60;85.66
26721;HTU21D;15950;51.112;6.966;2024-02-28T00:57:52;3.63;84.94
26721;HTU21D;15950;51.112;6.966;2024-02-28T01:00:52;3.30;85.64
26721;HTU21D;15950;51.112;6.966;2024-02-28T01:03:52;3.51;86.17
26721;HTU21D;15950;51.112;6.966;2024-02-28T01:06:52;3.28;86.13
26721;HTU21D;15950;51.112;6.966;2024-02-28T01:09:52;2.93;88.67
26721;HTU21D;15950;51.112;6.966;2024-02-28T01:12:52;3.00;89.54
26721;HTU21D;15950;51.112;6.966;2024-02-28T01:15:52;3.01;89.60
26721;HTU21D;15950;51.112;6.966;2024-02-28T01:18:52;3.32;89.34
26721;HTU21D;15950;51.112;6.966;2024-02-28T01:21:52;3.66;88.35
26721;HTU21D;15950;51.112;6.966;2024-02-28T01:24:52;3.55;88.26
26721;HTU21D;15950;51.112;6.966;2024-02-28T01:27:52;3.37;88.60
26721;HTU21D;15950;51.112;6.966;2024-02-28T01:30:52;3.40;89.36
26721;HTU21D;15950;51.112;6.966;2024-02-28T01:33:52;3.39;89.59
26721;HTU21D;15950;51.112;6.966;2024-02-28T01:36:52;3.71;88.25
26721;HTU21D;15950;51.112;6.966;2024-02-28T01:39:52;3.69;87.96
26721;HTU21D;15950;51.112;6.966;2024-02-28T01:42:52;3.95;86.70
26721;HTU21D;15950;51.112;6.966;2024-02-28T01:45:52;3.76;86.86
26721;HTU21D;15950;51.112;6.966;2024-02-28T01:48:56;3.63;88.18
26721;HTU21D;15950;51.112;6.966;2024-02-28T01:51:53;3.83;87.70
26721;HTU21D;15950;51.112;6.966;2024-02-28T01:54:52;3.93;87.22
26721;HTU21D;15950;51.112;6.966;2024-02-28T01:57:53;4.04;86.67
26721;HTU21D;15950;51.112;6.966;2024-02-28T02:00:53;4.05;86.64
26721;HTU21D;15950;51.112;6.966;2024-02-28T02:03:53;3.87;87.63
26721;HTU21D;15950;51.112;6.966;2024-02-28T02:06:52;4.04;87.42
26721;HTU21D;15950;51.112;6.966;2024-02-28T02:09:52;3.71;88.65
26721;HTU21D;15950;51.112;6.966;2024-02-28T02:12:52;3.43;90.23
26721;HTU21D;15950;51.112;6.966;2024-02-28T02:15:52;3.70;89.92
26721;HTU21D;15950;51.112;6.966;2024-02-28T02:18:52;3.47;90.67
26721;HTU21D;15950;51.112;6.966;2024-02-28T02:21:54;3.60;90.00
26721;HTU21D;15950;51.112;6.966;2024-02-28T02:24:52;3.67;89.90
26721;HTU21D;15950;51.112;6.966;2024-02-28T02:27:52;3.87;89.15
26721;HTU21D;15950;51.112;6.966;2024-02-28T02:30:52;4.08;88.22
26721;HTU21D;15950;51.112;6.966;2024-02-28T02:33:52;3.85;88.23
26721;HTU21D;15950;51.112;6.966;2024-02-28T02:36:52;3.83;88.99
26721;HTU21D;15950;51.112;6.966;2024-02-28T02:39:52;3.60;90.44
26721;HTU21D;15950;51.112;6.966;2024-02-28T02:42:52;3.55;91.58
26721;HTU21D;15950;51.112;6.966;2024-02-28T02:45:52;3.85;90.59
26721;HTU21D;15950;51.112;6.966;2024-02-28T02:48:52;3.90;89.56
26721;HTU21D;15950;51.112;6.966;2024-02-28T02:51:52;4.06;89.44
26721;HTU21D;15950;51.112;6.966;2024-02-28T02:54:52;4.16;88.79
26721;HTU21D;15950;51.112;6.966;2024-02-28T02:57:52;4.32;88.29
26721;HTU21D;15950;51.112;6.966;2024-02-28T03:00:52;4.39;87.51
26721;HTU21D;15950;51.112;6.966;2024-02-28T03:03:52;4.48;86.91
26721;HTU21D;15950;51.112;6.966;2024-02-28T03:06:52;4.28;87.41
26721;HTU21D;15950;51.112;6.966;2024-02-28T03:09:52;3.99;90.18
26721;HTU21D;15950;51.112;6.966;2024-02-28T03:12:52;4.13;89.60
26721;HTU21D;15950;51.112;6.966;2024-02-28T03:15:52;4.16;89.44
26721;HTU21D;15950;51.112;6.966;2024-02-28T03:18:53;4.28;89.23
26721;HTU21D;15950;51.112;6.966;2024-02-28T03:21:52;4.14;89.54
26721;HTU21D;15950;51.112;6.966;2024-02-28T03:24:52;3.84;91.67
26721;HTU21D;15950;51.112;6.966;2024-02-28T03:27:52;4.14;90.99
26721;HTU21D;15950;51.112;6.966;2024-02-28T03:30:52;4.33;90.09
26721;HTU21D;15950;51.112;6.966;2024-02-28T03:33:52;4.43;89.19
26721;HTU21D;15950;51.112;6.966;2024-02-28T03:36:52;4.40;88.74
26721;HTU21D;15950;51.112;6.966;2024-02-28T03:39:52;4.34;89.57
26721;HTU21D;15950;51.112;6.966;2024-02-28T03:42:52;4.46;89.34
26721;HTU21D;15950;51.112;6.966;2024-02-28T03:45:52;4.30;89.42
26721;HTU21D;15950;51.112;6.966;2024-02-28T03:48:52;4.42;89.73
26721;HTU21D;15950;51.112;6.966;2024-02-28T03:51:52;4.61;88.74
26721;HTU21D;15950;51.112;6.966;2024-02-28T03:54:52;4.41;89.40
26721;HTU21D;15950;51.112;6.966;2024-02-28T03:57:52;4.55;88.61
26721;HTU21D;15950;51.112;6.966;2024-02-28T04:00:52;4.10;90.55
26721;HTU21D;15950;51.112;6.966;2024-02-28T04:03:52;4.43;90.39
26721;HTU21D;15950;51.112;6.966;2024-02-28T04:06:52;4.42;90.05
26721;HTU21D;15950;51.112;6.966;2024-02-28T04:09:52;4.34;90.56
26721;HTU21D;15950;51.112;6.966;2024-02-28T04:12:52;4.30;91.24
26721;HTU21D;15950;51.112;6.966;2024-02-28T04:15:52;4.31;92.08
26721;HTU21D;15950;51.112;6.966;2024-02-28T04:18:52;4.15;92.47
26721;HTU21D;15950;51.112;6.966;2024-02-28T04:21:52;4.13;92.62
26721;HTU21D;15950;51.112;6.966;2024-02-28T04:24:52;4.46;91.47
26721;HTU21D;15950;51.112;6.966;2024-02-28T04:27:52;4.35;91.08
26721;HTU21D;15950;51.112;6.966;2024-02-28T04:30:52;4.42;90.69
26721;HTU21D;15950;51.112;6.966;2024-02-28T04:33:52;4.56;90.35
26721;HTU21D;15950;51.112;6.966;2024-02-28T04:36:52;4.60;90.02
26721;HTU21D;15950;51.112;6.966;2024-02-28T04:39:52;4.12;91.92
26721;HTU21D;15950;51.112;6.966;2024-02-28T04:42:52;4.28;92.95
26721;HTU21D;15950;51.112;6.966;2024-02-28T04:45:52;4.29;93.33
26721;HTU21D;15950;51.112;6.966;2024-02-28T04:48:52;4.52;91.92
26721;HTU21D;15950;51.112;6.966;2024-02-28T04:51:52;4.57;91.54
26721;HTU21D;15950;51.112;6.966;2024-02-28T04:54:52;4.69;90.68
26721;HTU21D;15950;51.112;6.966;2024-02-28T04:57:52;4.85;89.88
26721;HTU21D;15950;51.112;6.966;2024-02-28T05:00:52;4.64;90.64
26721;HTU21D;15950;51.112;6.966;2024-02-28T05:03:52;4.49;91.59
26721;HTU21D;15950;51.112;6.966;2024-02-28T05:06:52;4.44;92.34
26721;HTU21D;15950;51.112;6.966;2024-02-28T05:09:52;4.45;92.76
26721;HTU21D;15950;51.112;6.966;2024-02-28T05:12:52;4.64;92.00
26721;HTU21D;15950;51.112;6.966;2024-02-28T05:15:52;4.80;91.20
26721;HTU21D;15950;51.112;6.966;2024-02-28T05:18:52;4.59;91.63
26721;HTU21D;15950;51.112;6.966;2024-02-28T05:21:53;4.57;92.11
26721;HTU21D;15950;51.112;6.966;2024-02-28T05:24:52;4.46;93.04
26721;HTU21D;15950;51.112;6.966;2024-02-28T05:27:52;4.38;93.45
26721;HTU21D;15950;51.112;6.966;2024-02-28T05:30:52;4.32;93.98
26721;HTU21D;15950;51.112;6.966;2024-02-28T05:33:54;4.28;94.21
26721;HTU21D;15950;51.112;6.966;2024-02-28T05:36:52;4.33;93.96
26721;HTU21D;15950;51.112;6.966;2024-02-28T05:39:52;4.20;94.97
26721;HTU21D;15950;51.112;6.966;2024-02-28T05:42:52;4.25;94.87
26721;HTU21D;15950;51.112;6.966;2024-02-28T05:45:52;4.31;95.20
26721;HTU21D;15950;51.112;6.966;2024-02-28T05:48:52;4.48;94.32
26721;HTU21D;15950;51.112;6.966;2024-02-28T05:51:52;4.50;93.97
26721;HTU21D;15950;51.112;6.966;2024-02-28T05:54:52;4.39;94.07
26721;HTU21D;15950;51.112;6.966;2024-02-28T05:57:52;4.46;93.96
26721;HTU21D;15950;51.112;6.966;2024-02-28T06:00:52;4.45;93.93
26721;HTU21D;15950;51.112;6.966;2024-02-28T06:03:52;4.38;93.74
26721;HTU21D;15950;51.112;6.966;2024-02-28T06:06:52;4.40;94.01
26721;HTU21D;15950;51.112;6.966;2024-02-28T06:09:52;4.35;93.95
26721;HTU21D;15950;51.112;6.966;2024-02-28T06:12:52;4.57;93.39
26721;HTU21D;15950;51.112;6.966;2024-02-28T06:15:52;4.48;93.24
26721;HTU21D;15950;51.112;6.966;2024-02-28T06:18:52;4.47;93.04
26721;HTU21D;15950;51.112;6.966;2024-02-28T06:21:52;4.51;93.15
26721;HTU21D;15950;51.112;6.966;2024-02-28T06:24:52;4.45;93.27
26721;HTU21D;15950;51.112;6.966;2024-02-28T06:27:52;4.52;93.40
26721;HTU21D;15950;51.112;6.966;2024-02-28T06:30:52;4.60;92.75
26721;HTU21D;15950;51.112;6.966;2024-02-28T06:33:52;4.52;92.52
26721;HTU21D;15950;51.112;6.966;2024-02-28T06:36:52;4.71;92.34
26721;HTU21D;15950;51.112;6.966;2024-02-28T06:39:52;4.76;92.00
26721;HTU21D;15950;51.112;6.966;2024-02-28T06:42:52;4.72;91.61
26721;HTU21D;15950;51.112;6.966;2024-02-28T06:45:52;4.72;91.60
26721;HTU21D;15950;51.112;6.966;2024-02-28T06:48:52;4.68;91.74
26721;HTU21D;15950;51.112;6.966;2024-02-28T06:51:52;4.57;92.16
26721;HTU21D;15950;51.112;6.966;2024-02-28T06:54:52;4.65;92.14
26721;HTU21D;15950;51.112;6.966;2024-02-28T06:57:52;4.84;91.47
26721;HTU21D;15950;51.112;6.966;2024-02-28T07:00:52;4.67;91.73
26721;HTU21D;15950;51.112;6.966;2024-02-28T07:03:52;4.58;91.76
26721;HTU21D;15950;51.112;6.966;2024-02-28T07:06:52;4.69;91.79
26721;HTU21D;15950;51.112;6.966;2024-02-28T07:09:52;4.72;91.56
26721;HTU21D;15950;51.112;6.966;2024-02-28T07:12:52;4.53;92.05
26721;HTU21D;15950;51.112;6.966;2024-02-28T07:15:52;4.71;91.50
26721;HTU21D;15950;51.112;6.966;2024-02-28T07:18:52;4.43;92.27
26721;HTU21D;15950;51.112;6.966;2024-02-28T07:21:52;4.58;92.28
26721;HTU21D;15950;51.112;6.966;2024-02-28T07:24:52;4.75;91.54
26721;HTU21D;15950;51.112;6.966;2024-02-28T07:27:52;4.67;91.51
26721;HTU21D;15950;51.112;6.966;2024-02-28T07:30:52;4.84;91.42
26721;HTU21D;15950;51.112;6.966;2024-02-28T07:33:52;4.71;91.37
26721;HTU21D;15950;51.112;6.966;2024-02-28T07:36:52;4.75;91.42
26721;HTU21D;15950;51.112;6.966;2024-02-28T07:39:52;4.70;91.63
26721;HTU21D;15950;51.112;6.966;2024-02-28T07:42:52;4.70;91.26
26721;HTU21D;15950;51.112;6.966;2024-02-28T07:45:52;4.74;91.26
26721;HTU21D;15950;51.112;6.966;2024-02-28T07:48:52;4.77;90.84
26721;HTU21D;15950;51.112;6.966;2024-02-28T07:51:52;4.96;90.57
26721;HTU21D;15950;51.112;6.966;2024-02-28T07:54:52;4.92;90.57
26721;HTU21D;15950;51.112;6.966;2024-02-28T07:57:53;4.84;90.69
26721;HTU21D;15950;51.112;6.966;2024-02-28T08:00:52;4.99;90.50
26721;HTU21D;15950;51.112;6.966;2024-02-28T08:03:52;4.96;90.34
26721;HTU21D;15950;51.112;6.966;2024-02-28T08:06:52;5.01;89.94
26721;HTU21D;15950;51.112;6.966;2024-02-28T08:09:55;4.93;89.99
26721;HTU21D;15950;51.112;6.966;2024-02-28T08:12:52;4.77;90.85
26721;HTU21D;15950;51.112;6.966;2024-02-28T08:15:52;4.93;90.96
26721;HTU21D;15950;51.112;6.966;2024-02-28T08:18:52;4.88;90.79
26721;HTU21D;15950;51.112;6.966;2024-02-28T08:21:53;4.76;91.01
26721;HTU21D;15950;51.112;6.966;2024-02-28T08:24:52;4.87;91.16
26721;HTU21D;15950;51.112;6.966;2024-02-28T08:27:52;5.03;90.98
26721;HTU21D;15950;51.112;6.966;2024-02-28T08:30:52;5.01;90.95
26721;HTU21D;15950;51.112;6.966;2024-02-28T08:33:52;5.05;90.63
26721;HTU21D;15950;51.112;6.966;2024-02-28T08:36:52;4.99;90.70
26721;HTU21D;15950;51.112;6.966;2024-02-28T08:39:52;4.96;90.76
26721;HTU21D;15950;51.112;6.966;2024-02-28T08:42:52;4.92;91.43
26721;HTU21D;15950;51.112;6.966;2024-02-28T08:45:52;4.92;91.38
26721;HTU21D;15950;51.112;6.966;2024-02-28T08:48:52;5.01;91.08
26721;HTU21D;15950;51.112;6.966;2024-02-28T08:51:52;5.09;91.05
26721;HTU21D;15950;51.112;6.966;2024-02-28T08:54:52;5.07;91.05
26721;HTU21D;15950;51.112;6.966;2024-02-28T08:57:52;4.99;91.20
26721;HTU21D;15950;51.112;6.966;2024-02-28T09:00:52;5.03;91.32
26721;HTU21D;15950;51.112;6.966;2024-02-28T09:03:52;5.14;90.76
26721;HTU21D;15950;51.112;6.966;2024-02-28T09:06:52;5.30;90.47
26721;HTU21D;15950;51.112;6.966;2024-02-28T09:09:52;5.20;90.57
26721;HTU21D;15950;51.112;6.966;2024-02-28T09:12:52;5.25;90.42
26721;HTU21D;15950;51.112;6.966;2024-02-28T09:15:52;5.44;90.04
26721;HTU21D;15950;51.112;6.966;2024-02-28T09:18:52;5.32;89.90
26721;HTU21D;15950;51.112;6.966;2024-02-28T09:21:52;5.46;89.34
26721;HTU21D;15950;51.112;6.966;2024-02-28T09:24:52;5.35;89.44
26721;HTU21D;15950;51.112;6.966;2024-02-28T09:27:52;5.43;88.55
26721;HTU21D;15950;51.112;6.966;2024-02-28T09:30:52;5.41;88.51
26721;HTU21D;15950;51.112;6.966;2024-02-28T09:33:52;5.44;88.40
26721;HTU21D;15950;51.112;6.966;2024-02-28T09:36:52;5.44;88.28
26721;HTU21D;15950;51.112;6.966;2024-02-28T09:39:52;5.53;87.96
26721;HTU21D;15950;51.112;6.966;2024-02-28T09:42:53;5.50;88.21
26721;HTU21D;15950;51.112;6.966;2024-02-28T09:45:54;5.72;87.57
26721;HTU21D;15950;51.112;6.966;2024-02-28T09:48:52;5.64;87.83
26721;HTU21D;15950;51.112;6.966;2024-02-28T09:51:52;5.63;87.66
26721;HTU21D;15950;51.112;6.966;2024-02-28T09:54:52;5.70;87.34
26721;HTU21D;15950;51.112;6.966;2024-02-28T09:57:52;5.78;87.60
26721;HTU21D;15950;51.112;6.966;2024-02-28T10:00:52;5.87;87.09
26721;HTU21D;15950;51.112;6.966;2024-02-28T10:03:52;5.99;86.59
26721;HTU21D;15950;51.112;6.966;2024-02-28T10:06:52;5.91;86.20
26721;HTU21D;15950;51.112;6.966;2024-02-28T10:09:52;6.24;85.47
26721;HTU21D;15950;51.112;6.966;2024-02-28T10:12:52;6.20;85.60
26721;HTU21D;15950;51.112;6.966;2024-02-28T10:15:54;6.28;85.45
26721;HTU21D;15950;51.112;6.966;2024-02-28T10:18:52;6.41;85.08
26721;HTU21D;15950;51.112;6.966;2024-02-28T10:21:52;6.57;84.45
26721;HTU21D;15950;51.112;6.966;2024-02-28T10:24:57;6.57;84.36
26721;HTU21D;15950;51.112;6.966;2024-02-28T10:27:52;6.54;83.85
26721;HTU21D;15950;51.112;6.966;2024-02-28T10:30:53;6.60;83.94
26721;HTU21D;15950;51.112;6.966;2024-02-28T10:33:52;6.72;83.23
26721;HTU21D;15950;51.112;6.966;2024-02-28T10:36:52;6.75;82.74
26721;HTU21D;15950;51.112;6.966;2024-02-28T10:39:54;6.78;82.40
26721;HTU21D;15950;51.112;6.966;2024-02-28T10:42:53;6.93;82.51
26721;HTU21D;15950;51.112;6.966;2024-02-28T10:45:52;6.98;81.65
26721;HTU21D;15950;51.112;6.966;2024-02-28T10:48:52;7.14;81.07
26721;HTU21D;15950;51.112;6.966;2024-02-28T10:51:56;7.19;81.27
26721;HTU21D;15950;51.112;6.966;2024-02-28T10:54:54;7.21;80.55
26721;HTU21D;15950;51.112;6.966;2024-02-28T10:58:02;7.11;79.87
26721;HTU21D;15950;51.112;6.966;2024-02-28T11:00:57;7.11;79.53
26721;HTU21D;15950;51.112;6.966;2024-02-28T11:03:53;7.19;79.79
26721;HTU21D;15950;51.112;6.966;2024-02-28T11:06:55;7.34;80.08
26721;HTU21D;15950;51.112;6.966;2024-02-28T11:09:55;7.31;79.74
26721;HTU21D;15950;51.112;6.966;2024-02-28T11:12:55;7.44;79.35
26721;HTU21D;15950;51.112;6.966;2024-02-28T11:15:52;7.22;78.89
26721;HTU21D;15950;51.112;6.966;2024-02-28T11:18:52;7.35;79.19
26721;HTU21D;15950;51.112;6.966;2024-02-28T11:21:55;7.30;78.57
26721;HTU21D;15950;51.112;6.966;2024-02-28T11:24:54;7.36;78.80
26721;HTU21D;15950;51.112;6.966;2024-02-28T11:27:52;7.45;78.62
26721;HTU21D;15950;51.112;6.966;2024-02-28T11:30:52;7.53;78.60
26721;HTU21D;15950;51.112;6.966;2024-02-28T11:33:52;7.69;77.84
26721;HTU21D;15950;51.112;6.966;2024-02-28T11:36:52;7.80;77.43
26721;HTU21D;15950;51.112;6.966;2024-02-28T11:39:52;7.80;77.08
26721;HTU21D;15950;51.112;6.966;2024-02-28T11:42:53;7.81;76.72
26721;HTU21D;15950;51.112;6.966;2024-02-28T11:45:53;7.68;76.50
26721;HTU21D;15950;51.112;6.966;2024-02-28T11:48:52;7.85;76.85
26721;HTU21D;15950;51.112;6.966;2024-02-28T11:51:52;7.77;75.86
26721;HTU21D;15950;51.112;6.966;2024-02-28T11:54:52;7.89;75.78
26721;HTU21D;15950;51.112;6.966;2024-02-28T11:57:52;7.89;75.34
26721;HTU21D;15950;51.112;6.966;2024-02-28T12:00:52;8.07;75.19
26721;HTU21D;15950;51.112;6.966;2024-02-28T12:03:52;8.18;74.78
26721;HTU21D;15950;51.112;6.966;2024-02-28T12:06:52;8.27;73.51
26721;HTU21D;15950;51.112;6.966;2024-02-28T12:09:54;8.06;72.82
26721;HTU21D;15950;51.112;6.966;2024-02-28T12:12:52;7.94;73.19
26721;HTU21D;15950;51.112;6.966;2024-02-28T12:15:52;8.19;73.60
26721;HTU21D;15950;51.112;6.966;2024-02-28T12:18:52;8.33;73.65
26721;HTU21D;15950;51.112;6.966;2024-02-28T12:21:52;8.37;72.70
26721;HTU21D;15950;51.112;6.966;2024-02-28T12:24:52;8.38;70.90
26721;HTU21D;15950;51.112;6.966;2024-02-28T12:27:52;8.52;70.50
26721;HTU21D;15950;51.112;6.966;2024-02-28T12:30:52;8.33;69.72
26721;HTU21D;15950;51.112;6.966;2024-02-28T12:33:52;8.37;70.46
26721;HTU21D;15950;51.112;6.966;2024-02-28T12:36:52;8.40;70.86
26721;HTU21D;15950;51.112;6.966;2024-02-28T12:39:52;8.33;70.47
26721;HTU21D;15950;51.112;6.966;2024-02-28T12:42:52;8.58;70.37
26721;HTU21D;15950;51.112;6.966;2024-02-28T12:45:52;8.51;70.87
26721;HTU21D;15950;51.112;6.966;2024-02-28T12:48:52;8.71;71.16
26721;HTU21D;15950;51.112;6.966;2024-02-28T12:51:52;8.52;70.68
26721;HTU21D;15950;51.112;6.966;2024-02-28T12:54:52;8.59;70.33
26721;HTU21D;15950;51.112;6.966;2024-02-28T12:57:52;8.39;70.04
26721;HTU21D;15950;51.112;6.966;2024-02-28T13:00:52;8.57;70.36
26721;HTU21D;15950;51.112;6.966;2024-02-28T13:03:52;8.89;70.23
26721;HTU21D;15950;51.112;6.966;2024-02-28T13:06:52;8.80;69.13
26721;HTU21D;15950;51.112;6.966;2024-02-28T13:09:52;8.90;68.49
26721;HTU21D;15950;51.112;6.966;2024-02-28T13:12:52;8.96;65.96
26721;HTU21D;15950;51.112;6.966;2024-02-28T13:15:52;9.08;65.11
26721;HTU21D;15950;51.112;6.966;2024-02-28T13:18:52;9.08;65.15
26721;HTU21D;15950;51.112;6.966;2024-02-28T13:21:52;9.17;66.03
26721;HTU21D;15950;51.112;6.966;2024-02-28T13:24:52;9.18;66.20
26721;HTU21D;15950;51.112;6.966;2024-02-28T13:27:52;8.98;66.24
26721;HTU21D;15950;51.112;6.966;2024-02-28T13:30:52;9.13;66.51
26721;HTU21D;15950;51.112;6.966;2024-02-28T13:33:52;9.27;66.36
26721;HTU21D;15950;51.112;6.966;2024-02-28T13:36:52;9.32;65.89
26721;HTU21D;15950;51.112;6.966;2024-02-28T13:39:52;9.38;64.32
26721;HTU21D;15950;51.112;6.966;2024-02-28T13:42:52;9.28;64.24
26721;HTU21D;15950;51.112;6.966;2024-02-28T13:45:52;9.30;63.89
26721;HTU21D;15950;51.112;6.966;2024-02-28T13:48:52;9.32;63.60
26721;HTU21D;15950;51.112;6.966;2024-02-28T13:51:52;9.34;64.38
26721;HTU21D;15950;51.112;6.966;2024-02-28T13:54:52;9.45;65.31
26721;HTU21D;15950;51.112;6.966;2024-02-28T13:57:52;9.51;65.20
26721;HTU21D;15950;51.112;6.966;2024-02-28T14:00:52;9.48;64.28
26721;HTU21D;15950;51.112;6.966;2024-02-28T14:03:52;9.41;63.85
26721;HTU21D;15950;51.112;6.966;2024-02-28T14:06:52;9.46;62.71
26721;HTU21D;15950;51.112;6.966;2024-02-28T14:09:52;9.50;61.89
26721;HTU21D;15950;51.112;6.966;2024-02-28T14:12:52;9.56;62.43
26721;HTU21D;15950;51.112;6.966;2024-02-28T14:15:52;9.57;61.16
26721;HTU21D;15950;51.112;6.966;2024-02-28T14:18:52;9.61;59.99
26721;HTU21D;15950;51.112;6.966;2024-02-28T14:21:52;9.61;59.97
26721;HTU21D;15950;51.112;6.966;2024-02-28T14:24:52;9.66;59.69
26721;HTU21D;15950;51.112;6.966;2024-02-28T14:27:52;9.66;58.82
26721;HTU21D;15950;51.112;6.966;2024-02-28T14:30:52;9.63;58.64
26721;HTU21D;15950;51.112;6.966;2024-02-28T14:33:52;9.71;58.74
26721;HTU21D;15950;51.112;6.966;2024-02-28T14:36:52;9.67;58.13
26721;HTU21D;15950;51.112;6.966;2024-02-28T14:39:52;9.72;58.11
26721;HTU21D;15950;51.112;6.966;2024-02-28T14:42:52;9.69;58.92
26721;HTU21D;15950;51.112;6.966;2024-02-28T14:45:52;9.83;58.71
26721;HTU21D;15950;51.112;6.966;2024-02-28T14:48:52;9.80;58.21
26721;HTU21D;15950;51.112;6.966;2024-02-28T14:51:52;9.73;57.64
26721;HTU21D;15950;51.112;6.966;2024-02-28T14:54:52;9.85;57.96
26721;HTU21D;15950;51.112;6.966;2024-02-28T14:57:52;9.89;58.17
26721;HTU21D;15950;51.112;6.966;2024-02-28T15:00:52;9.96;58.05
26721;HTU21D;15950;51.112;6.966;2024-02-28T15:03:53;9.99;57.42
26721;HTU21D;15950;51.112;6.966;2024-02-28T15:06:52;9.95;57.23
26721;HTU21D;15950;51.112;6.966;2024-02-28T15:09:52;9.89;56.61
26721;HTU21D;15950;51.112;6.966;2024-02-28T15:12:52;9.84;56.36
26721;HTU21D;15950;51.112;6.966;2024-02-28T15:15:52;9.82;56.35
26721;HTU21D;15950;51.112;6.966;2024-02-28T15:18:52;9.92;57.26
26721;HTU21D;15950;51.112;6.966;2024-02-28T15:21:53;9.92;57.94
26721;HTU21D;15950;51.112;6.966;2024-02-28T15:24:52;9.87;57.64
26721;HTU21D;15950;51.112;6.966;2024-02-28T15:27:52;9.80;57.61
26721;HTU21D;15950;51.112;6.966;2024-02-28T15:30:52;9.74;56.97
26721;HTU21D;15950;51.112;6.966;2024-02-28T15:33:52;9.84;56.93
26721;HTU21D;15950;51.112;6.966;2024-02-28T15:36:52;9.80;57.50
26721;HTU21D;15950;51.112;6.966;2024-02-28T15:39:52;9.87;57.64
26721;HTU21D;15950;51.112;6.966;2024-02-28T15:42:52;9.87;57.71
26721;HTU21D;15950;51.112;6.966;2024-02-28T15:45:52;9.82;57.91
26721;HTU21D;15950;51.112;6.966;2024-02-28T15:48:52;9.86;58.03
26721;HTU21D;15950;51.112;6.966;2024-02-28T15:51:52;9.90;57.95
26721;HTU21D;15950;51.112;6.966;2024-02-28T15:54:52;9.94;58.15
26721;HTU21D;15950;51.112;6.966;2024-02-28T15:57:52;9.82;57.92
26721;HTU21D;15950;51.112;6.966;2024-02-28T16:00:52;9.89;58.28
26721;HTU21D;15950;51.112;6.966;2024-02-28T16:03:52;9.94;58.94
26721;HTU21D;15950;51.112;6.966;2024-02-28T16:06:52;9.87;58.73
26721;HTU21D;15950;51.112;6.966;2024-02-28T16:09:52;9.90;58.77
26721;HTU21D;15950;51.112;6.966;2024-02-28T16:12:52;9.86;58.37
26721;HTU21D;15950;51.112;6.966;2024-02-28T16:15:52;9.74;57.95
26721;HTU21D;15950;51.112;6.966;2024-02-28T16:18:52;9.77;57.71
26721;HTU21D;15950;51.112;6.966;2024-02-28T16:21:52;9.83;57.90
26721;HTU21D;15950;51.112;6.966;2024-02-28T16:24:52;9.90;58.51
26721;HTU21D;15950;51.112;6.966;2024-02-28T16:27:52;9.78;58.78
26721;HTU21D;15950;51.112;6.966;2024-02-28T16:30:53;9.90;59.12
26721;HTU21D;15950;51.112;6.966;2024-02-28T16:33:52;9.81;58.97
26721;HTU21D;15950;51.112;6.966;2024-02-28T16:36:52;9.78;58.87
26721;HTU21D;15950;51.112;6.966;2024-02-28T16:39:52;9.78;59.03
26721;HTU21D;15950;51.112;6.966;2024-02-28T16:42:52;10.02;59.38
26721;HTU21D;15950;51.112;6.966;2024-02-28T16:45:52;10.10;59.03
26721;HTU21D;15950;51.112;6.966;2024-02-28T16:48:52;10.21;58.60
26721;HTU21D;15950;51.112;6.966;2024-02-28T16:51:52;10.08;58.30
26721;HTU21D;15950;51.112;6.966;2024-02-28T16:54:52;9.89;58.85
26721;HTU21D;15950;51.112;6.966;2024-02-28T16:57:52;9.70;59.24
26721;HTU21D;15950;51.112;6.966;2024-02-28T17:00:52;9.71;60.23
26721;HTU21D;15950;51.112;6.966;2024-02-28T17:03:52;9.56;60.87
26721;HTU21D;15950;51.112;6.966;2024-02-28T17:06:52;9.47;62.15
26721;HTU21D;15950;51.112;6.966;2024-02-28T17:09:52;9.29;63.61
26721;HTU21D;15950;51.112;6.966;2024-02-28T17:12:52;9.19;64.95
26721;HTU21D;15950;51.112;6.966;2024-02-28T17:15:52;9.12;65.54
26721;HTU21D;15950;51.112;6.966;2024-02-28T17:18:52;9.11;66.16
26721;HTU21D;15950;51.112;6.966;2024-02-28T17:21:52;8.99;66.75
26721;HTU21D;15950;51.112;6.966;2024-02-28T17:24:52;8.87;67.20
26721;HTU21D;15950;51.112;6.966;2024-02-28T17:27:52;8.77;67.76
26721;HTU21D;15950;51.112;6.966;2024-02-28T17:30:52;8.76;68.19
26721;HTU21D;15950;51.112;6.966;2024-02-28T17:33:52;8.76;68.46
26721;HTU21D;15950;51.112;6.966;2024-02-28T17:36:52;8.95;68.52
26721;HTU21D;15950;51.112;6.966;2024-02-28T17:39:52;8.75;68.78
26721;HTU21D;15950;51.112;6.966;2024-02-28T17:42:52;8.74;69.20
26721;HTU21D;15950;51.112;6.966;2024-02-28T17:45:52;8.69;69.55
26721;HTU21D;15950;51.112;6.966;2024-02-28T17:48:52;8.65;69.78
26721;HTU21D;15950;51.112;6.966;2024-02-28T17:51:52;8.58;69.85
26721;HTU21D;15950;51.112;6.966;2024-02-28T17:54:52;8.63;70.19
26721;HTU21D;15950;51.112;6.966;2024-02-28T17:57:52;8.52;70.64
26721;HTU21D;15950;51.112;6.966;2024-02-28T18:00:52;8.42;70.89
26721;HTU21D;15950;51.112;6.966;2024-02-28T18:03:52;8.53;71.32
26721;HTU21D;15950;51.112;6.966;2024-02-28T18:06:52;8.32;71.80
26721;HTU21D;15950;51.112;6.966;2024-02-28T18:09:52;8.39;71.83
26721;HTU21D;15950;51.112;6.966;2024-02-28T18:12:52;8.28;72.32
26721;HTU21D;15950;51.112;6.966;2024-02-28T18:15:52;8.28;72.58
26721;HTU21D;15950;51.112;6.966;2024-02-28T18:18:52;8.23;72.61
26721;HTU21D;15950;51.112;6.966;2024-02-28T18:21:52;8.24;72.80
26721;HTU21D;15950;51.112;6.966;2024-02-28T18:24:52;8.28;73.09
26721;HTU21D;15950;51.112;6.966;2024-02-28T18:27:52;8.22;73.08
26721;HTU21D;15950;51.112;6.966;2024-02-28T18:30:52;8.32;72.90
26721;HTU21D;15950;51.112;6.966;2024-02-28T18:33:52;8.27;72.94
26721;HTU21D;15950;51.112;6.966;2024-02-28T18:36:52;8.30;73.21
26721;HTU21D;15950;51.112;6.966;2024-02-28T18:39:52;8.20;73.19
26721;HTU21D;15950;51.112;6.966;2024-02-28T18:42:53;8.20;73.28
26721;HTU21D;15950;51.112;6.966;2024-02-28T18:45:52;8.23;73.66
26721;HTU21D;15950;51.112;6.966;2024-02-28T18:48:52;8.12;73.44
26721;HTU21D;15950;51.112;6.966;2024-02-28T18:51:53;8.20;73.66
26721;HTU21D;15950;51.112;6.966;2024-02-28T18:54:52;8.30;73.93